KAMW/AMW METAR and TAF weather

Enter ICAO airport designator
Station Type Date Time Source
KAMW METAR 2024/07/13 02:53 UTC NOAA

KAMW 130253Z AUTO 11003KT 10SM FEW042 24/21 A3004 RMK AO2 SLP164 T02440211 51004


Station Type Date Time Source
KAMW Decoded METAR 2024/07/13 02:53 UTC NOAA

AMES MUNICIPAL AIRPORT, IA, United States (KAMW) 41-59N 93-37W 279M
Jul 12, 2024 - 10:53 PM EDT / 2024.07.13 0253 UTC
Wind: from the ESE (110 degrees) at 3 MPH (3 KT):0
Visibility: 10 mile(s):0
Sky conditions: mostly clear
Temperature: 75.9 F (24.4 C)
Dew Point: 70.0 F (21.1 C)
Relative Humidity: 81%
Pressure (altimeter): 30.04 in. Hg (1017 hPa)
Pressure tendency: 0.01 inches (0.4 hPa) higher than three hours ago
ob: KAMW 130253Z AUTO 11003KT 10SM FEW042 24/21 A3004 RMK AO2 SLP164 T02440211 51004
cycle: 3

Station Type Date Time Source
KAMW TAF UTC NOAA

Error!

Example: see airport list